Time;durP1;ratioP1;P1;durP2;ratioP2;P2;SDS_P1;SDS_P2;PMS_P1;PMS_P2;Temp;Humidity;BMP_temperature;BMP_pressure;BME280_temperature;BME280_humidity;BME280_pressure;Samples;Min_cycle;Max_cycle;Signal;HPM_P1;HPM_P2
2022/03/21 00:00:18;;;;;;;18.60;10.90;;;22.70;49.70;;;;;;219223;1273;22636;-56
2022/03/21 00:05:40;;;;;;;19.60;10.40;;;22.60;50.00;;;;;;219357;1274;24237;-52
2022/03/21 00:10:45;;;;;;;17.90;11.00;;;22.60;49.80;;;;;;219425;1273;22707;-52
2022/03/21 00:15:50;;;;;;;18.60;10.70;;;22.60;49.80;;;;;;219259;1273;22535;-53
2022/03/21 00:20:55;;;;;;;15.00;10.80;;;22.60;49.70;;;;;;219293;1273;24437;-53
2022/03/21 00:25:59;;;;;;;18.10;11.20;;;22.60;50.10;;;;;;219341;1273;22698;-54
2022/03/21 00:31:03;;;;;;;18.10;10.90;;;22.70;49.70;;;;;;219220;1273;22568;-54
2022/03/21 00:36:08;;;;;;;17.00;9.70;;;22.60;49.50;;;;;;219312;1273;22998;-54
2022/03/21 00:41:26;;;;;;;15.80;10.50;;;22.70;49.20;;;;;;219281;1273;25258;-51
2022/03/21 00:46:29;;;;;;;14.90;9.80;;;22.70;48.80;;;;;;219259;1273;25274;-54
2022/03/21 00:51:33;;;;;;;16.20;10.30;;;22.70;48.50;;;;;;219249;1274;25373;-53
2022/03/21 00:56:36;;;;;;;13.00;9.30;;;22.60;48.50;;;;;;219191;1273;22611;-54
2022/03/21 01:01:40;;;;;;;14.80;9.50;;;22.50;48.40;;;;;;219253;1273;24327;-51
2022/03/21 01:06:44;;;;;;;17.30;10.10;;;22.50;47.90;;;;;;219319;1273;22550;-53
2022/03/21 01:11:48;;;;;;;18.90;10.60;;;22.50;47.90;;;;;;219420;1273;22679;-54
2022/03/21 01:16:55;;;;;;;17.00;10.10;;;22.40;47.60;;;;;;219251;1273;22544;-51
2022/03/21 01:21:59;;;;;;;17.10;9.90;;;22.40;47.60;;;;;;219571;1273;22544;-53
2022/03/21 01:27:04;;;;;;;13.50;9.20;;;22.40;47.40;;;;;;219328;1273;25318;-54
2022/03/21 01:32:07;;;;;;;11.60;8.50;;;22.30;47.30;;;;;;219435;1273;24298;-52
2022/03/21 01:37:12;;;;;;;11.50;8.90;;;22.30;47.30;;;;;;219427;1273;25516;-55
2022/03/21 01:42:15;;;;;;;15.00;9.10;;;22.30;47.20;;;;;;219290;1273;22640;-53
2022/03/21 01:47:20;;;;;;;14.30;8.80;;;22.20;47.40;;;;;;219030;1273;22584;-53
2022/03/21 01:52:23;;;;;;;13.40;8.80;;;22.20;47.00;;;;;;219354;1273;24069;-53
2022/03/21 01:57:27;;;;;;;12.50;7.90;;;22.20;47.40;;;;;;219044;1274;22541;-54
2022/03/21 02:02:32;;;;;;;11.10;7.60;;;22.30;47.00;;;;;;219259;1273;25217;-54
2022/03/21 02:07:36;;;;;;;12.60;8.20;;;22.50;46.50;;;;;;219500;1273;22561;-54
2022/03/21 02:12:40;;;;;;;13.20;8.30;;;22.90;46.00;;;;;;219452;1273;22564;-53
2022/03/21 02:17:46;;;;;;;13.50;8.30;;;23.20;45.20;;;;;;219465;1273;22761;-53
2022/03/21 02:23:07;;;;;;;11.90;7.50;;;23.30;45.00;;;;;;219458;1274;26705;-55
2022/03/21 02:28:15;;;;;;;11.60;7.20;;;23.50;44.20;;;;;;219451;1274;25657;-50
2022/03/21 02:33:19;;;;;;;10.20;7.00;;;23.60;44.40;;;;;;219565;1273;25379;-55
2022/03/21 02:38:25;;;;;;;11.90;8.00;;;23.70;43.70;;;;;;219560;1273;22722;-53
2022/03/21 02:43:51;;;;;;;12.30;8.10;;;23.70;44.00;;;;;;219484;1273;24382;-50
2022/03/21 02:48:56;;;;;;;12.10;7.30;;;23.80;43.30;;;;;;219556;1273;25561;-52
2022/03/21 02:53:59;;;;;;;10.90;7.70;;;23.80;43.40;;;;;;219422;1274;25343;-52
2022/03/21 02:59:03;;;;;;;11.50;7.80;;;23.90;43.00;;;;;;219490;1273;25543;-51
2022/03/21 03:04:09;;;;;;;9.80;6.90;;;23.90;42.80;;;;;;219433;1273;26653;-54
2022/03/21 03:09:13;;;;;;;16.30;8.90;;;24.00;42.60;;;;;;219316;1275;24424;-53
2022/03/21 03:14:18;;;;;;;10.70;7.20;;;24.00;42.50;;;;;;219367;1273;23020;-55
2022/03/21 03:19:22;;;;;;;11.70;7.40;;;24.00;42.30;;;;;;219246;1272;26712;-53
2022/03/21 03:24:27;;;;;;;13.40;7.80;;;24.10;42.30;;;;;;219251;1273;22537;-56
2022/03/21 03:29:31;;;;;;;11.30;7.70;;;24.10;42.10;;;;;;219383;1273;25382;-53
2022/03/21 03:34:35;;;;;;;13.30;7.60;;;24.20;42.10;;;;;;219308;1274;22571;-54
2022/03/21 03:39:39;;;;;;;10.40;6.80;;;24.20;42.00;;;;;;219482;1273;25303;-56
2022/03/21 03:44:43;;;;;;;12.60;7.20;;;24.10;42.00;;;;;;219371;1273;27490;-53
2022/03/21 03:49:46;;;;;;;16.00;7.70;;;24.00;42.50;;;;;;219348;1273;25563;-55
2022/03/21 03:54:50;;;;;;;12.40;7.40;;;23.90;42.30;;;;;;219275;1273;24333;-54
2022/03/21 03:59:54;;;;;;;11.50;7.20;;;23.70;42.60;;;;;;219445;1273;25909;-51
2022/03/21 04:04:57;;;;;;;11.70;7.10;;;23.50;42.80;;;;;;219560;1273;25464;-53
2022/03/21 04:10:01;;;;;;;11.40;7.40;;;23.30;43.10;;;;;;219419;1273;25663;-54
2022/03/21 04:15:07;;;;;;;10.70;7.20;;;23.20;43.30;;;;;;219509;1273;22715;-53
2022/03/21 04:20:12;;;;;;;11.50;7.60;;;23.20;43.30;;;;;;219444;1275;22772;-53
2022/03/21 04:25:15;;;;;;;11.20;7.50;;;23.20;43.30;;;;;;219575;1273;22602;-51
2022/03/21 04:30:22;;;;;;;11.70;7.60;;;23.10;43.40;;;;;;219527;1273;25501;-53
2022/03/21 04:35:26;;;;;;;10.70;7.10;;;23.00;43.40;;;;;;219494;1273;22539;-53
2022/03/21 04:40:30;;;;;;;12.30;8.40;;;23.00;43.60;;;;;;219492;1273;22718;-52
2022/03/21 04:45:34;;;;;;;13.40;8.20;;;22.90;43.50;;;;;;219195;1274;259387;-51
2022/03/21 04:50:38;;;;;;;11.00;7.40;;;22.80;43.70;;;;;;219519;1273;22553;-52
2022/03/21 04:55:42;;;;;;;10.90;7.70;;;22.80;43.70;;;;;;219701;1273;22547;-53
2022/03/21 05:00:46;;;;;;;12.50;8.60;;;22.70;43.80;;;;;;219597;1273;22596;-55
2022/03/21 05:05:50;;;;;;;12.60;8.30;;;22.70;43.90;;;;;;219529;1273;22620;-53
2022/03/21 05:10:54;;;;;;;14.80;8.90;;;22.60;43.90;;;;;;219517;1273;22552;-52
2022/03/21 05:15:57;;;;;;;12.00;8.00;;;22.50;44.00;;;;;;219374;1273;25411;-52
2022/03/21 05:21:03;;;;;;;13.70;8.10;;;22.50;43.70;;;;;;219349;1273;22779;-55
2022/03/21 05:31:30;;;;;;;13.00;7.30;;;22.50;43.90;;;;;;219369;1273;25430;-52
2022/03/21 05:36:36;;;;;;;13.20;7.90;;;22.90;44.00;;;;;;219473;1273;22614;-56
2022/03/21 05:41:40;;;;;;;11.00;7.40;;;23.30;43.00;;;;;;219185;1274;22538;-52
2022/03/21 05:46:44;;;;;;;11.80;7.30;;;23.50;42.40;;;;;;219093;1274;24435;-53
2022/03/21 05:51:47;;;;;;;11.50;7.20;;;23.60;42.10;;;;;;219350;1273;22578;-53
2022/03/21 05:56:51;;;;;;;11.10;7.40;;;23.70;41.90;;;;;;219323;1273;22637;-52
2022/03/21 06:01:54;;;;;;;11.00;7.30;;;23.80;41.80;;;;;;219450;1273;25528;-55
2022/03/21 06:06:58;;;;;;;11.50;7.30;;;23.80;41.10;;;;;;219747;1272;26012;-51
2022/03/21 06:12:08;;;;;;;13.40;8.10;;;23.90;41.40;;;;;;219259;1276;22584;-55
2022/03/21 06:17:12;;;;;;;9.90;7.60;;;23.90;41.20;;;;;;219700;1273;22816;-52
2022/03/21 06:22:29;;;;;;;13.60;8.10;;;23.90;41.30;;;;;;219454;1273;22899;-54
2022/03/21 06:27:35;;;;;;;14.60;8.60;;;24.00;41.00;;;;;;219236;1274;22582;-54
2022/03/21 06:32:38;;;;;;;12.60;7.80;;;24.00;40.80;;;;;;219380;1275;22538;-56
2022/03/21 06:37:42;;;;;;;13.20;7.70;;;24.10;40.80;;;;;;219604;1273;25585;-53
2022/03/21 06:42:46;;;;;;;10.60;7.30;;;24.10;41.20;;;;;;219577;1273;22550;-54
2022/03/21 06:47:50;;;;;;;13.50;7.70;;;24.10;41.10;;;;;;219313;1273;22567;-53
2022/03/21 06:52:56;;;;;;;14.20;8.00;;;24.10;41.40;;;;;;219356;1273;22632;-54
2022/03/21 06:58:03;;;;;;;12.30;7.70;;;24.10;42.00;;;;;;219323;1275;22583;-58
2022/03/21 07:03:08;;;;;;;11.50;7.10;;;24.10;41.60;;;;;;219323;1273;25574;-55
2022/03/21 07:08:12;;;;;;;12.70;8.00;;;24.20;41.90;;;;;;219423;1273;22587;-53
2022/03/21 07:13:17;;;;;;;12.30;7.40;;;24.10;42.10;;;;;;219628;1273;22702;-52
2022/03/21 07:18:21;;;;;;;11.80;7.30;;;23.90;42.10;;;;;;219204;1274;22559;-52
2022/03/21 07:23:25;;;;;;;14.50;7.60;;;23.80;42.50;;;;;;219207;1274;26980;-54
2022/03/21 07:28:29;;;;;;;12.80;7.60;;;23.70;43.60;;;;;;219371;1273;22537;-54
2022/03/21 07:33:52;;;;;;;18.90;7.50;;;23.60;43.30;;;;;;219255;1275;25329;-54
2022/03/21 07:38:57;;;;;;;11.20;7.30;;;23.50;43.60;;;;;;219205;1274;22722;-55
2022/03/21 07:44:01;;;;;;;15.90;8.30;;;23.40;44.20;;;;;;219494;1273;22580;-56
2022/03/21 07:49:05;;;;;;;23.20;7.50;;;23.30;44.50;;;;;;219103;1275;25536;-53
2022/03/21 07:54:13;;;;;;;18.80;8.50;;;23.20;44.30;;;;;;219293;1273;22557;-51
2022/03/21 07:59:19;;;;;;;19.30;9.00;;;23.20;44.80;;;;;;219142;1273;22573;-54
2022/03/21 08:04:25;;;;;;;17.70;8.60;;;23.10;44.70;;;;;;219234;1275;24460;-50
2022/03/21 08:09:29;;;;;;;16.60;9.20;;;23.10;43.50;;;;;;219494;1273;25241;-53
2022/03/21 08:14:33;;;;;;;14.30;8.80;;;23.10;43.50;;;;;;221035;1273;22598;-55
2022/03/21 08:19:37;;;;;;;16.20;9.60;;;22.90;43.50;;;;;;219197;1273;24118;-52
2022/03/21 08:24:41;;;;;;;17.40;9.70;;;22.90;43.20;;;;;;219073;1273;22564;-54
2022/03/21 08:29:44;;;;;;;17.70;8.80;;;23.00;42.80;;;;;;219279;1272;22547;-54
2022/03/21 08:34:57;;;;;;;15.40;9.30;;;23.00;42.80;;;;;;219378;1273;22555;-53
2022/03/21 08:40:12;;;;;;;15.70;8.70;;;22.90;42.80;;;;;;219468;1273;22535;-57
2022/03/21 08:45:31;;;;;;;17.30;8.90;;;22.90;42.90;;;;;;219229;1273;25523;-57
2022/03/21 08:50:40;;;;;;;16.50;8.10;;;22.90;42.80;;;;;;219415;1273;24337;-55
2022/03/21 08:55:59;;;;;;;17.10;9.10;;;22.80;43.30;;;;;;219143;1276;22535;-55
2022/03/21 09:01:15;;;;;;;17.70;9.70;;;22.90;42.70;;;;;;219299;1273;24270;-53
2022/03/21 09:06:25;;;;;;;15.30;8.50;;;22.80;43.20;;;;;;219346;1273;25689;-56
2022/03/21 09:11:37;;;;;;;20.60;9.30;;;22.90;42.40;;;;;;219458;1276;24426;-52
2022/03/21 09:16:43;;;;;;;17.20;10.80;;;22.90;42.30;;;;;;219414;1272;22791;-55
2022/03/21 09:21:49;;;;;;;16.20;9.00;;;22.80;42.30;;;;;;219324;1273;22583;-53
2022/03/21 09:27:12;;;;;;;;;;;;;;;;;;;;;
2022/03/21 09:32:20;;;;;;;14.50;8.70;;;22.80;42.00;;;;;;219257;1276;22547;-54
2022/03/21 09:37:27;;;;;;;15.80;8.70;;;22.80;42.10;;;;;;219371;1273;22628;-55
2022/03/21 09:42:39;;;;;;;21.90;10.00;;;22.80;41.80;;;;;;219407;1273;24266;-55
2022/03/21 09:53:11;;;;;;;20.50;9.30;;;22.90;44.10;;;;;;219384;1273;25523;-54
2022/03/21 09:58:16;;;;;;;17.60;9.00;;;22.90;43.90;;;;;;219253;1273;22616;-56
2022/03/21 10:03:20;;;;;;;16.30;8.40;;;22.90;43.60;;;;;;219398;1276;25324;-54
2022/03/21 10:08:36;;;;;;;15.00;8.60;;;22.90;43.50;;;;;;219524;1273;25435;-55
2022/03/21 10:13:43;;;;;;;15.00;8.60;;;22.90;43.20;;;;;;219050;1273;25331;-56
2022/03/21 10:18:53;;;;;;;14.50;7.80;;;22.90;43.30;;;;;;219214;1273;25321;-53
2022/03/21 10:24:10;;;;;;;16.40;8.70;;;23.00;42.80;;;;;;219390;1273;22557;-56
2022/03/21 10:29:14;;;;;;;14.30;7.50;;;23.10;42.20;;;;;;219423;1273;22555;-52
2022/03/21 10:34:23;;;;;;;15.60;7.90;;;23.00;42.30;;;;;;219246;1273;22640;-55
2022/03/21 10:39:28;;;;;;;17.10;7.90;;;23.00;42.20;;;;;;219368;1273;24458;-54
2022/03/21 10:44:34;;;;;;;13.60;7.50;;;23.10;42.10;;;;;;219326;1273;22545;-54
2022/03/21 10:49:43;;;;;;;15.80;7.50;;;23.10;41.90;;;;;;219160;1273;24265;-56
2022/03/21 10:54:49;;;;;;;12.00;7.30;;;23.20;41.70;;;;;;219246;1273;24332;-55
2022/03/21 11:00:11;;;;;;;13.40;7.40;;;23.20;41.40;;;;;;219256;1273;22626;-53
2022/03/21 11:05:17;;;;;;;12.20;7.40;;;23.20;41.20;;;;;;219409;1273;22625;-54
2022/03/21 11:10:21;;;;;;;12.90;7.30;;;23.20;41.50;;;;;;219181;1274;25611;-55
2022/03/21 11:15:25;;;;;;;15.70;7.40;;;23.30;41.30;;;;;;219183;1273;22692;-55
2022/03/21 11:20:29;;;;;;;17.10;6.50;;;23.30;39.80;;;;;;219191;1273;25528;-53
2022/03/21 11:25:37;;;;;;;10.70;7.10;;;23.40;39.80;;;;;;219543;1273;22568;-54
2022/03/21 11:31:02;;;;;;;11.70;6.90;;;23.40;39.70;;;;;;219362;1273;24246;-56
2022/03/21 11:36:10;;;;;;;11.20;6.70;;;23.50;39.80;;;;;;219454;1273;24279;-54
2022/03/21 11:41:21;;;;;;;9.80;6.20;;;23.40;39.70;;;;;;219295;1273;24361;-55
2022/03/21 11:46:31;;;;;;;11.00;6.60;;;23.40;40.00;;;;;;219583;1274;22556;-55
2022/03/21 11:51:39;;;;;;;10.50;6.50;;;23.50;39.80;;;;;;219142;1276;24224;-55
2022/03/21 11:56:45;;;;;;;11.60;6.40;;;23.50;39.90;;;;;;219236;1273;24259;-55
2022/03/21 12:01:49;;;;;;;10.10;6.10;;;23.60;39.60;;;;;;219235;1274;22550;-56
2022/03/21 12:07:20;;;;;;;11.40;6.70;;;23.60;39.70;;;;;;219287;1272;25418;-55
2022/03/21 12:12:39;;;;;;;10.00;6.20;;;23.60;39.80;;;;;;219180;1274;25332;-55
2022/03/21 12:17:47;;;;;;;12.80;7.00;;;23.70;39.30;;;;;;219221;1273;22570;-56
2022/03/21 12:23:00;;;;;;;10.50;6.40;;;23.70;39.20;;;;;;219273;1275;22563;-56
2022/03/21 12:33:50;;;;;;;9.50;5.90;;;23.70;39.00;;;;;;219272;1275;22563;-55
2022/03/21 12:38:57;;;;;;;9.40;6.10;;;23.70;39.00;;;;;;219315;1273;22658;-56
2022/03/21 12:44:05;;;;;;;10.30;5.80;;;23.70;39.40;;;;;;219395;1273;22652;-52
2022/03/21 12:49:12;;;;;;;8.20;5.50;;;23.70;38.70;;;;;;219409;1273;24271;-54
2022/03/21 12:54:16;;;;;;;9.50;5.50;;;23.70;38.90;;;;;;219441;1274;24403;-55
2022/03/21 12:59:22;;;;;;;8.80;5.50;;;23.70;38.80;;;;;;219368;1273;22622;-57
2022/03/21 13:15:12;;;;;;;9.10;5.60;;;23.70;38.80;;;;;;219386;1275;23642;-54
2022/03/21 13:20:20;;;;;;;8.60;5.50;;;23.70;38.70;;;;;;219337;1275;25692;-57
2022/03/21 13:25:35;;;;;;;16.50;6.30;;;23.70;38.60;;;;;;219333;1273;22543;-53
2022/03/21 13:31:01;;;;;;;14.10;7.00;;;23.70;39.00;;;;;;219131;1274;24856;-53
2022/03/21 13:36:07;;;;;;;8.00;5.60;;;23.60;38.60;;;;;;219583;1273;24265;-55
2022/03/21 13:41:18;;;;;;;8.10;5.60;;;23.60;38.50;;;;;;219450;1275;24059;-55
2022/03/21 13:46:24;;;;;;;12.70;6.00;;;23.60;39.20;;;;;;219325;1273;22559;-56
2022/03/21 13:51:29;;;;;;;7.70;5.20;;;23.60;38.80;;;;;;219294;1275;22607;-55
2022/03/21 13:56:34;;;;;;;9.80;5.70;;;23.60;38.90;;;;;;219215;1273;22938;-54
2022/03/21 14:01:41;;;;;;;9.40;5.80;;;23.60;39.00;;;;;;219441;1273;22534;-54
2022/03/21 14:07:02;;;;;;;9.60;5.50;;;23.60;38.90;;;;;;219248;1273;24379;-54
2022/03/21 14:12:10;;;;;;;8.90;5.40;;;23.60;38.60;;;;;;219472;1273;22560;-53
2022/03/21 14:17:14;;;;;;;8.60;5.80;;;23.50;38.30;;;;;;219417;1275;25535;-55
2022/03/21 14:22:29;;;;;;;8.50;5.40;;;23.50;38.10;;;;;;219283;1273;22550;-56
2022/03/21 14:27:34;;;;;;;7.50;5.50;;;23.50;37.80;;;;;;219283;1274;22657;-54
2022/03/21 14:32:38;;;;;;;9.60;6.00;;;23.50;37.70;;;;;;219217;1276;24755;-55
2022/03/21 14:37:43;;;;;;;8.80;5.50;;;23.50;38.00;;;;;;219535;1273;25600;-55
2022/03/21 14:42:47;;;;;;;10.00;5.40;;;23.50;38.10;;;;;;219376;1273;24207;-53
2022/03/21 14:47:51;;;;;;;9.20;5.90;;;23.40;38.10;;;;;;219429;1273;22538;-55
2022/03/21 14:52:57;;;;;;;7.80;5.30;;;23.40;38.00;;;;;;219367;1274;24438;-54
2022/03/21 14:58:03;;;;;;;7.70;4.90;;;23.30;37.80;;;;;;219348;1274;25546;-53
2022/03/21 15:03:08;;;;;;;9.70;5.70;;;23.30;37.90;;;;;;219238;1275;25669;-55
2022/03/21 15:08:12;;;;;;;7.70;5.30;;;23.20;37.90;;;;;;221883;1272;24429;-56
2022/03/21 15:13:17;;;;;;;7.60;5.20;;;23.20;37.80;;;;;;219402;1274;25446;-55
2022/03/21 15:18:21;;;;;;;10.30;5.60;;;23.10;38.00;;;;;;219447;1274;22590;-55
2022/03/21 15:23:25;;;;;;;7.60;5.30;;;23.10;37.70;;;;;;219361;1274;24238;-55
2022/03/21 15:28:30;;;;;;;9.10;4.80;;;23.10;37.80;;;;;;219610;1274;22664;-52
2022/03/21 15:33:37;;;;;;;8.20;5.50;;;23.00;37.70;;;;;;219698;1274;22540;-55
2022/03/21 15:44:10;;;;;;;7.60;5.10;;;22.90;37.70;;;;;;219319;1274;26522;-54
2022/03/21 15:49:13;;;;;;;8.70;5.10;;;22.90;37.60;;;;;;219421;1274;23508;-55
2022/03/21 15:54:19;;;;;;;7.40;4.70;;;22.90;37.70;;;;;;219371;1274;22600;-53
2022/03/21 15:59:24;;;;;;;7.00;4.60;;;22.90;37.70;;;;;;219381;1274;22557;-54
2022/03/21 16:04:35;;;;;;;8.50;5.30;;;22.80;37.30;;;;;;219435;1275;25310;-56
2022/03/21 16:09:43;;;;;;;7.00;4.90;;;22.80;37.10;;;;;;219468;1274;24297;-54
2022/03/21 16:14:54;;;;;;;6.70;4.80;;;22.80;36.90;;;;;;219263;1273;25569;-55
2022/03/21 16:20:01;;;;;;;8.10;5.40;;;22.80;37.10;;;;;;219376;1274;22587;-55
2022/03/21 16:25:05;;;;;;;8.20;5.20;;;22.80;36.60;;;;;;218904;1274;22705;-53
2022/03/21 16:30:18;;;;;;;7.10;4.80;;;22.70;36.60;;;;;;219315;1274;24308;-54
2022/03/21 16:35:25;;;;;;;10.70;5.20;;;22.70;37.00;;;;;;219149;1274;24282;-52
2022/03/21 16:40:31;;;;;;;9.70;4.80;;;22.60;37.60;;;;;;218986;1274;25353;-55
2022/03/21 16:45:53;;;;;;;8.60;4.80;;;22.60;39.30;;;;;;213556;1275;7414293;-53
2022/03/21 16:50:57;;;;;;;10.40;5.40;;;22.50;38.40;;;;;;218920;1274;22543;-55
2022/03/21 16:56:01;;;;;;;10.40;5.60;;;22.50;38.90;;;;;;219239;1273;23051;-55
2022/03/21 17:01:06;;;;;;;11.30;5.00;;;22.50;38.70;;;;;;218831;1274;24552;-53
2022/03/21 17:06:20;;;;;;;14.30;5.80;;;22.50;39.40;;;;;;219029;1274;24266;-56
2022/03/21 17:11:45;;;;;;;11.70;5.40;;;22.50;39.90;;;;;;219016;1275;22543;-54
2022/03/21 17:16:49;;;;;;;16.30;4.80;;;22.60;39.50;;;;;;218653;1274;24220;-55
2022/03/21 17:27:48;;;;;;;19.80;6.90;;;22.50;42.10;;;;;;218738;1274;25352;-54
2022/03/21 17:32:59;;;;;;;13.00;6.00;;;22.60;43.80;;;;;;219081;1273;26615;-55
2022/03/21 17:38:06;;;;;;;17.00;7.10;;;22.60;41.40;;;;;;219279;1274;22721;-52
2022/03/21 17:43:17;;;;;;;16.20;6.00;;;22.80;41.60;;;;;;218913;1273;22706;-52
2022/03/21 17:48:29;;;;;;;14.80;5.70;;;22.70;41.10;;;;;;219105;1273;23317;-55
2022/03/21 17:53:43;;;;;;;14.20;5.70;;;22.70;41.30;;;;;;219258;1273;24336;-55
2022/03/21 17:59:30;;;;;;;14.00;6.10;;;22.70;41.30;;;;;;218906;1273;24362;-55
2022/03/21 18:04:38;;;;;;;19.00;7.90;;;22.70;41.60;;;;;;219436;1273;24364;-58
2022/03/21 18:09:53;;;;;;;14.50;7.70;;;22.60;40.90;;;;;;218935;1274;24237;-56
2022/03/21 18:14:58;;;;;;;19.10;8.70;;;22.60;40.80;;;;;;219206;1273;24237;-55
2022/03/21 18:25:53;;;;;;;20.20;9.90;;;22.60;40.90;;;;;;219047;1273;25634;-56
2022/03/21 18:31:31;;;;;;;24.50;10.30;;;22.60;41.10;;;;;;219027;1273;25369;-55
2022/03/21 18:37:28;;;;;;;23.30;11.40;;;22.60;40.60;;;;;;218911;1273;22669;-56
2022/03/21 18:42:44;;;;;;;20.80;12.20;;;22.80;40.10;;;;;;219243;1273;22754;-55
2022/03/21 18:47:50;;;;;;;21.60;12.20;;;23.10;39.90;;;;;;219038;1273;27410;-53
2022/03/21 18:53:00;;;;;;;22.10;11.10;;;23.30;40.60;;;;;;219356;1273;22755;-54
2022/03/21 18:58:04;;;;;;;24.10;12.60;;;23.50;41.40;;;;;;219302;1273;24269;-54
2022/03/21 19:03:23;;;;;;;23.30;13.70;;;23.60;41.30;;;;;;219298;1273;22612;-57
2022/03/21 19:08:37;;;;;;;34.60;15.90;;;23.80;41.80;;;;;;219227;1273;24488;-55
2022/03/21 19:13:51;;;;;;;33.20;15.60;;;23.90;41.70;;;;;;219420;1273;24304;-56
2022/03/21 19:18:58;;;;;;;41.90;17.40;;;23.90;41.70;;;;;;219300;1273;25429;-52
2022/03/21 19:24:07;;;;;;;34.40;16.20;;;24.00;41.00;;;;;;219039;1273;22570;-54
2022/03/21 19:29:21;;;;;;;31.00;17.30;;;24.00;40.50;;;;;;219449;1272;24303;-53
2022/03/21 19:34:28;;;;;;;33.50;16.30;;;24.00;40.10;;;;;;219233;1273;22563;-53
2022/03/21 19:39:36;;;;;;;30.40;17.20;;;24.00;39.70;;;;;;219178;1276;26562;-55
2022/03/21 19:44:40;;;;;;;28.70;16.00;;;24.10;39.60;;;;;;219407;1272;25440;-53
2022/03/21 19:49:47;;;;;;;29.20;18.00;;;24.10;40.10;;;;;;219208;1273;22618;-56
2022/03/21 19:54:54;;;;;;;28.70;16.60;;;24.00;39.70;;;;;;219306;1273;24394;-54
2022/03/21 19:59:58;;;;;;;32.40;18.10;;;23.90;39.80;;;;;;219465;1273;24359;-55
2022/03/21 20:05:04;;;;;;;31.70;18.10;;;23.80;39.70;;;;;;219349;1273;25351;-54
2022/03/21 20:10:10;;;;;;;38.60;21.00;;;23.60;39.60;;;;;;219137;1273;22534;-53
2022/03/21 20:15:17;;;;;;;33.60;20.30;;;23.50;39.50;;;;;;222216;1272;25527;-54
2022/03/21 20:20:23;;;;;;;36.30;21.00;;;23.50;39.80;;;;;;218951;1273;22551;-55
2022/03/21 20:25:35;;;;;;;31.60;21.30;;;23.30;39.30;;;;;;219156;1272;25372;-57
2022/03/21 20:30:44;;;;;;;36.30;22.20;;;23.20;39.60;;;;;;218956;1273;24315;-55
2022/03/21 20:35:51;;;;;;;35.90;23.00;;;23.20;39.30;;;;;;218908;1273;25462;-51
2022/03/21 20:40:57;;;;;;;38.10;22.50;;;23.00;39.50;;;;;;219138;1273;22532;-56
2022/03/21 20:46:01;;;;;;;45.00;25.30;;;23.00;39.70;;;;;;218934;1273;25134;-56
2022/03/21 20:51:08;;;;;;;40.60;24.00;;;23.00;39.60;;;;;;218666;1273;23940;-54
2022/03/21 20:56:13;;;;;;;38.50;23.50;;;23.00;40.30;;;;;;218706;1273;24268;-59
2022/03/21 21:01:21;;;;;;;40.20;25.20;;;22.90;40.20;;;;;;219240;1273;22648;-58
2022/03/21 21:06:31;;;;;;;43.80;25.50;;;22.90;40.60;;;;;;219204;1273;22552;-56
2022/03/21 21:11:35;;;;;;;47.20;25.30;;;22.80;40.40;;;;;;219349;1273;25541;-56
2022/03/21 21:16:40;;;;;;;44.10;26.00;;;22.80;40.90;;;;;;219263;1273;25044;-56
2022/03/21 21:21:48;;;;;;;44.50;26.50;;;22.70;41.10;;;;;;219198;1273;23130;-54
2022/03/21 21:26:51;;;;;;;41.10;25.00;;;22.60;40.90;;;;;;219254;1273;22764;-57
2022/03/21 21:31:57;;;;;;;41.30;25.70;;;22.60;41.00;;;;;;218765;1273;22556;-58
2022/03/21 21:37:06;;;;;;;45.50;25.30;;;22.50;41.20;;;;;;218818;1273;22715;-55
2022/03/21 21:42:11;;;;;;;38.90;24.60;;;22.50;41.40;;;;;;219205;1273;25895;-58
2022/03/21 21:47:15;;;;;;;43.30;25.90;;;22.40;41.30;;;;;;219039;1273;24316;-60
2022/03/21 21:52:32;;;;;;;40.10;24.00;;;22.60;41.40;;;;;;219211;1272;25437;-57
2022/03/21 21:57:38;;;;;;;40.40;24.80;;;22.90;41.00;;;;;;219177;1273;22742;-58
2022/03/21 22:02:42;;;;;;;39.30;24.60;;;23.20;40.50;;;;;;218993;1273;25264;-55
2022/03/21 22:07:50;;;;;;;38.20;24.00;;;23.40;40.20;;;;;;219081;1273;22541;-55
2022/03/21 22:13:01;;;;;;;;;;;23.60;40.20;;;;;;219265;1273;22521;-56
2022/03/21 22:18:09;;;;;;;38.80;22.30;;;23.80;42.30;;;;;;219477;1273;24332;-56
2022/03/21 22:23:19;;;;;;;36.40;22.90;;;23.90;41.90;;;;;;219220;1273;25396;-55
2022/03/21 22:28:27;;;;;;;36.70;21.70;;;24.00;41.90;;;;;;219698;1273;25634;-56
2022/03/21 22:33:42;;;;;;;34.20;20.80;;;24.10;41.80;;;;;;219444;1273;22560;-56
2022/03/21 22:38:48;;;;;;;32.20;21.10;;;24.20;41.40;;;;;;219540;1273;27627;-56
2022/03/21 22:49:19;;;;;;;34.80;22.10;;;24.20;41.30;;;;;;219573;1273;26018;-53
2022/03/21 22:54:28;;;;;;;37.20;22.60;;;24.10;41.30;;;;;;219269;1273;22564;-57
2022/03/21 22:59:48;;;;;;;37.00;23.80;;;24.10;41.50;;;;;;219321;1273;24421;-55
2022/03/21 23:04:52;;;;;;;35.40;22.20;;;24.00;41.60;;;;;;219439;1273;22622;-54
2022/03/21 23:09:58;;;;;;;36.30;22.10;;;23.80;41.70;;;;;;219536;1273;24438;-56
2022/03/21 23:15:02;;;;;;;34.80;21.80;;;23.70;42.40;;;;;;219519;1273;22560;-52
2022/03/21 23:20:09;;;;;;;32.40;19.60;;;23.60;42.00;;;;;;219442;1273;22572;-57
2022/03/21 23:25:13;;;;;;;33.30;19.70;;;23.50;42.20;;;;;;219652;1273;22640;-56
2022/03/21 23:30:18;;;;;;;33.40;21.10;;;23.40;42.60;;;;;;219519;1273;22567;-56
2022/03/21 23:35:21;;;;;;;42.40;23.00;;;23.40;42.60;;;;;;219349;1273;25935;-56
2022/03/21 23:45:54;;;;;;;42.10;23.40;;;23.10;44.60;;;;;;219302;1272;24939;-54
2022/03/21 23:50:58;;;;;;;39.80;23.10;;;23.10;47.10;;;;;;219541;1273;22622;-54
2022/03/21 23:56:07;;;;;;;43.10;23.70;;;23.10;46.80;;;;;;219280;1273;22589;-53
